sensor_id;sensor_type;location;lat;lon;timestamp;P1;durP1;ratioP1;P2;durP2;ratioP2
4274;SDS011;2151;50.988;11.068;2024-02-21T00:00:33;116.50;;;6.30;;
4274;SDS011;2151;50.988;11.068;2024-02-21T00:02:59;119.97;;;7.00;;
4274;SDS011;2151;50.988;11.068;2024-02-21T00:05:28;117.27;;;7.03;;
4274;SDS011;2151;50.988;11.068;2024-02-21T00:07:55;125.30;;;7.00;;
4274;SDS011;2151;50.988;11.068;2024-02-21T00:10:21;122.17;;;7.20;;
4274;SDS011;2151;50.988;11.068;2024-02-21T00:12:49;119.30;;;7.30;;
4274;SDS011;2151;50.988;11.068;2024-02-21T00:15:15;116.30;;;6.97;;
4274;SDS011;2151;50.988;11.068;2024-02-21T00:17:43;118.83;;;6.30;;
4274;SDS011;2151;50.988;11.068;2024-02-21T00:20:10;120.87;;;7.20;;
4274;SDS011;2151;50.988;11.068;2024-02-21T00:22:37;121.37;;;6.70;;
4274;SDS011;2151;50.988;11.068;2024-02-21T00:25:04;122.27;;;7.23;;
4274;SDS011;2151;50.988;11.068;2024-02-21T00:27:31;120.17;;;6.97;;
4274;SDS011;2151;50.988;11.068;2024-02-21T00:29:58;119.63;;;6.67;;
4274;SDS011;2151;50.988;11.068;2024-02-21T00:32:25;123.40;;;7.00;;
4274;SDS011;2151;50.988;11.068;2024-02-21T00:34:51;123.00;;;7.07;;
4274;SDS011;2151;50.988;11.068;2024-02-21T00:37:18;119.70;;;6.67;;
4274;SDS011;2151;50.988;11.068;2024-02-21T00:39:46;118.53;;;7.43;;
4274;SDS011;2151;50.988;11.068;2024-02-21T00:42:12;115.10;;;6.50;;
4274;SDS011;2151;50.988;11.068;2024-02-21T00:44:38;115.57;;;6.60;;
4274;SDS011;2151;50.988;11.068;2024-02-21T00:47:05;117.63;;;7.10;;
4274;SDS011;2151;50.988;11.068;2024-02-21T00:49:32;122.50;;;7.27;;
4274;SDS011;2151;50.988;11.068;2024-02-21T00:51:58;132.90;;;7.20;;
4274;SDS011;2151;50.988;11.068;2024-02-21T00:54:25;113.37;;;6.50;;
4274;SDS011;2151;50.988;11.068;2024-02-21T00:56:57;116.47;;;6.87;;
4274;SDS011;2151;50.988;11.068;2024-02-21T00:59:23;117.10;;;6.73;;
4274;SDS011;2151;50.988;11.068;2024-02-21T01:01:49;123.07;;;7.70;;
4274;SDS011;2151;50.988;11.068;2024-02-21T01:04:16;121.57;;;6.83;;
4274;SDS011;2151;50.988;11.068;2024-02-21T01:06:43;118.70;;;6.77;;
4274;SDS011;2151;50.988;11.068;2024-02-21T01:09:13;120.00;;;7.10;;
4274;SDS011;2151;50.988;11.068;2024-02-21T01:11:39;120.93;;;7.30;;
4274;SDS011;2151;50.988;11.068;2024-02-21T01:14:06;119.47;;;7.00;;
4274;SDS011;2151;50.988;11.068;2024-02-21T01:16:32;124.47;;;6.80;;
4274;SDS011;2151;50.988;11.068;2024-02-21T01:18:58;120.10;;;6.90;;
4274;SDS011;2151;50.988;11.068;2024-02-21T01:21:25;122.47;;;7.80;;
4274;SDS011;2151;50.988;11.068;2024-02-21T01:23:51;121.77;;;7.50;;
4274;SDS011;2151;50.988;11.068;2024-02-21T01:26:18;116.23;;;6.50;;
4274;SDS011;2151;50.988;11.068;2024-02-21T01:28:44;118.77;;;6.20;;
4274;SDS011;2151;50.988;11.068;2024-02-21T01:31:11;122.87;;;7.00;;
4274;SDS011;2151;50.988;11.068;2024-02-21T01:33:39;119.43;;;6.40;;
4274;SDS011;2151;50.988;11.068;2024-02-21T01:36:05;117.03;;;6.83;;
4274;SDS011;2151;50.988;11.068;2024-02-21T01:38:34;125.03;;;6.73;;
4274;SDS011;2151;50.988;11.068;2024-02-21T01:41:00;120.13;;;6.50;;
4274;SDS011;2151;50.988;11.068;2024-02-21T01:43:27;119.37;;;6.40;;
4274;SDS011;2151;50.988;11.068;2024-02-21T01:45:54;124.70;;;7.43;;
4274;SDS011;2151;50.988;11.068;2024-02-21T01:48:21;119.90;;;7.30;;
4274;SDS011;2151;50.988;11.068;2024-02-21T01:50:49;125.13;;;6.60;;
4274;SDS011;2151;50.988;11.068;2024-02-21T01:53:16;122.10;;;6.50;;
4274;SDS011;2151;50.988;11.068;2024-02-21T01:55:45;121.00;;;7.83;;
4274;SDS011;2151;50.988;11.068;2024-02-21T01:58:14;119.27;;;6.60;;
4274;SDS011;2151;50.988;11.068;2024-02-21T02:00:44;121.97;;;7.37;;
4274;SDS011;2151;50.988;11.068;2024-02-21T02:03:12;121.90;;;7.33;;
4274;SDS011;2151;50.988;11.068;2024-02-21T02:05:48;121.67;;;7.50;;
4274;SDS011;2151;50.988;11.068;2024-02-21T02:08:21;117.35;;;6.60;;
4274;SDS011;2151;50.988;11.068;2024-02-21T02:10:51;121.00;;;7.20;;
4274;SDS011;2151;50.988;11.068;2024-02-21T02:13:18;123.10;;;7.50;;
4274;SDS011;2151;50.988;11.068;2024-02-21T02:15:45;121.10;;;6.70;;
4274;SDS011;2151;50.988;11.068;2024-02-21T02:18:12;123.50;;;7.60;;
4274;SDS011;2151;50.988;11.068;2024-02-21T02:20:39;127.93;;;7.30;;
4274;SDS011;2151;50.988;11.068;2024-02-21T02:23:07;119.43;;;6.40;;
4274;SDS011;2151;50.988;11.068;2024-02-21T02:25:35;116.43;;;6.80;;
4274;SDS011;2151;50.988;11.068;2024-02-21T02:28:02;118.10;;;6.83;;
4274;SDS011;2151;50.988;11.068;2024-02-21T02:30:33;116.83;;;7.20;;
4274;SDS011;2151;50.988;11.068;2024-02-21T02:33:00;122.03;;;6.90;;
4274;SDS011;2151;50.988;11.068;2024-02-21T02:35:27;120.57;;;7.17;;
4274;SDS011;2151;50.988;11.068;2024-02-21T02:37:54;120.37;;;6.80;;
4274;SDS011;2151;50.988;11.068;2024-02-21T02:40:20;120.97;;;6.80;;
4274;SDS011;2151;50.988;11.068;2024-02-21T02:42:47;122.07;;;6.60;;
4274;SDS011;2151;50.988;11.068;2024-02-21T02:45:15;120.80;;;6.40;;
4274;SDS011;2151;50.988;11.068;2024-02-21T02:47:42;116.90;;;6.17;;
4274;SDS011;2151;50.988;11.068;2024-02-21T02:50:10;122.30;;;6.93;;
4274;SDS011;2151;50.988;11.068;2024-02-21T02:52:36;121.10;;;7.57;;
4274;SDS011;2151;50.988;11.068;2024-02-21T02:55:03;117.90;;;6.80;;
4274;SDS011;2151;50.988;11.068;2024-02-21T02:57:30;126.87;;;6.97;;
4274;SDS011;2151;50.988;11.068;2024-02-21T02:59:56;117.33;;;6.43;;
4274;SDS011;2151;50.988;11.068;2024-02-21T03:02:23;120.37;;;7.20;;
4274;SDS011;2151;50.988;11.068;2024-02-21T03:04:50;118.60;;;6.83;;
4274;SDS011;2151;50.988;11.068;2024-02-21T03:07:16;118.03;;;7.20;;
4274;SDS011;2151;50.988;11.068;2024-02-21T03:09:43;121.10;;;6.90;;
4274;SDS011;2151;50.988;11.068;2024-02-21T03:12:09;117.87;;;6.53;;
4274;SDS011;2151;50.988;11.068;2024-02-21T03:14:36;121.37;;;6.73;;
4274;SDS011;2151;50.988;11.068;2024-02-21T03:17:03;119.60;;;6.57;;
4274;SDS011;2151;50.988;11.068;2024-02-21T03:19:29;116.87;;;6.50;;
4274;SDS011;2151;50.988;11.068;2024-02-21T03:21:56;116.07;;;6.90;;
4274;SDS011;2151;50.988;11.068;2024-02-21T03:24:22;120.63;;;7.30;;
4274;SDS011;2151;50.988;11.068;2024-02-21T03:26:49;122.53;;;7.57;;
4274;SDS011;2151;50.988;11.068;2024-02-21T03:29:17;118.00;;;6.83;;
4274;SDS011;2151;50.988;11.068;2024-02-21T03:31:43;121.37;;;7.20;;
4274;SDS011;2151;50.988;11.068;2024-02-21T03:34:10;118.93;;;6.83;;
4274;SDS011;2151;50.988;11.068;2024-02-21T03:36:37;116.80;;;7.70;;
4274;SDS011;2151;50.988;11.068;2024-02-21T03:39:09;119.40;;;7.40;;
4274;SDS011;2151;50.988;11.068;2024-02-21T03:41:36;124.73;;;8.23;;
4274;SDS011;2151;50.988;11.068;2024-02-21T03:44:03;118.67;;;7.73;;
4274;SDS011;2151;50.988;11.068;2024-02-21T03:46:30;117.93;;;7.33;;
4274;SDS011;2151;50.988;11.068;2024-02-21T03:48:57;116.17;;;7.10;;
4274;SDS011;2151;50.988;11.068;2024-02-21T03:51:24;120.00;;;7.40;;
4274;SDS011;2151;50.988;11.068;2024-02-21T03:53:51;117.50;;;7.70;;
4274;SDS011;2151;50.988;11.068;2024-02-21T03:56:17;121.03;;;7.73;;
4274;SDS011;2151;50.988;11.068;2024-02-21T03:58:44;120.43;;;7.67;;
4274;SDS011;2151;50.988;11.068;2024-02-21T04:01:10;124.33;;;7.13;;
4274;SDS011;2151;50.988;11.068;2024-02-21T04:03:37;126.53;;;7.83;;
4274;SDS011;2151;50.988;11.068;2024-02-21T04:06:04;137.43;;;9.07;;
4274;SDS011;2151;50.988;11.068;2024-02-21T04:08:31;116.27;;;7.83;;
4274;SDS011;2151;50.988;11.068;2024-02-21T04:10:58;119.07;;;7.63;;
4274;SDS011;2151;50.988;11.068;2024-02-21T04:13:24;118.17;;;7.80;;
4274;SDS011;2151;50.988;11.068;2024-02-21T04:15:52;122.03;;;7.60;;
4274;SDS011;2151;50.988;11.068;2024-02-21T04:18:18;121.83;;;7.07;;
4274;SDS011;2151;50.988;11.068;2024-02-21T04:20:45;121.80;;;7.37;;
4274;SDS011;2151;50.988;11.068;2024-02-21T04:23:11;116.87;;;7.07;;
4274;SDS011;2151;50.988;11.068;2024-02-21T04:25:38;119.20;;;7.50;;
4274;SDS011;2151;50.988;11.068;2024-02-21T04:28:05;126.67;;;7.90;;
4274;SDS011;2151;50.988;11.068;2024-02-21T04:30:32;120.57;;;8.00;;
4274;SDS011;2151;50.988;11.068;2024-02-21T04:32:59;116.43;;;7.07;;
4274;SDS011;2151;50.988;11.068;2024-02-21T04:35:25;116.07;;;6.67;;
4274;SDS011;2151;50.988;11.068;2024-02-21T04:37:52;126.13;;;7.77;;
4274;SDS011;2151;50.988;11.068;2024-02-21T04:40:18;121.90;;;7.63;;
4274;SDS011;2151;50.988;11.068;2024-02-21T04:42:45;121.23;;;7.37;;
4274;SDS011;2151;50.988;11.068;2024-02-21T04:45:12;116.73;;;7.33;;
4274;SDS011;2151;50.988;11.068;2024-02-21T04:47:39;118.90;;;7.37;;
4274;SDS011;2151;50.988;11.068;2024-02-21T04:50:06;122.27;;;7.60;;
4274;SDS011;2151;50.988;11.068;2024-02-21T04:52:33;118.80;;;7.30;;
4274;SDS011;2151;50.988;11.068;2024-02-21T04:55:00;121.33;;;7.43;;
4274;SDS011;2151;50.988;11.068;2024-02-21T04:57:26;122.37;;;8.10;;
4274;SDS011;2151;50.988;11.068;2024-02-21T04:59:52;118.80;;;7.33;;
4274;SDS011;2151;50.988;11.068;2024-02-21T05:02:19;121.07;;;6.93;;
4274;SDS011;2151;50.988;11.068;2024-02-21T05:04:48;114.70;;;6.90;;
4274;SDS011;2151;50.988;11.068;2024-02-21T05:07:15;118.97;;;7.13;;
4274;SDS011;2151;50.988;11.068;2024-02-21T05:09:42;116.07;;;7.80;;
4274;SDS011;2151;50.988;11.068;2024-02-21T05:12:09;121.53;;;7.50;;
4274;SDS011;2151;50.988;11.068;2024-02-21T05:14:36;118.60;;;7.70;;
4274;SDS011;2151;50.988;11.068;2024-02-21T05:17:02;125.93;;;7.30;;
4274;SDS011;2151;50.988;11.068;2024-02-21T05:19:29;115.83;;;7.00;;
4274;SDS011;2151;50.988;11.068;2024-02-21T05:21:56;117.20;;;7.63;;
4274;SDS011;2151;50.988;11.068;2024-02-21T05:24:22;115.27;;;6.60;;
4274;SDS011;2151;50.988;11.068;2024-02-21T05:26:48;117.37;;;7.23;;
4274;SDS011;2151;50.988;11.068;2024-02-21T05:29:15;115.77;;;7.57;;
4274;SDS011;2151;50.988;11.068;2024-02-21T05:34:17;117.93;;;7.20;;
4274;SDS011;2151;50.988;11.068;2024-02-21T05:36:44;123.57;;;7.67;;
4274;SDS011;2151;50.988;11.068;2024-02-21T05:39:11;123.17;;;8.30;;
4274;SDS011;2151;50.988;11.068;2024-02-21T05:41:37;116.80;;;7.70;;
4274;SDS011;2151;50.988;11.068;2024-02-21T05:44:08;122.10;;;7.30;;
4274;SDS011;2151;50.988;11.068;2024-02-21T05:46:34;115.23;;;7.20;;
4274;SDS011;2151;50.988;11.068;2024-02-21T05:49:01;128.90;;;7.53;;
4274;SDS011;2151;50.988;11.068;2024-02-21T05:51:32;116.77;;;6.73;;
4274;SDS011;2151;50.988;11.068;2024-02-21T05:53:59;120.17;;;7.27;;
4274;SDS011;2151;50.988;11.068;2024-02-21T05:56:25;119.10;;;7.40;;
4274;SDS011;2151;50.988;11.068;2024-02-21T05:58:52;120.50;;;7.30;;
4274;SDS011;2151;50.988;11.068;2024-02-21T06:01:19;116.50;;;8.23;;
4274;SDS011;2151;50.988;11.068;2024-02-21T06:03:47;119.47;;;7.23;;
4274;SDS011;2151;50.988;11.068;2024-02-21T06:06:14;118.13;;;7.60;;
4274;SDS011;2151;50.988;11.068;2024-02-21T06:08:41;120.27;;;7.43;;
4274;SDS011;2151;50.988;11.068;2024-02-21T06:11:07;115.93;;;6.80;;
4274;SDS011;2151;50.988;11.068;2024-02-21T06:13:37;120.13;;;7.77;;
4274;SDS011;2151;50.988;11.068;2024-02-21T06:16:04;122.37;;;7.93;;
4274;SDS011;2151;50.988;11.068;2024-02-21T06:18:31;115.07;;;6.50;;
4274;SDS011;2151;50.988;11.068;2024-02-21T06:20:57;118.30;;;6.73;;
4274;SDS011;2151;50.988;11.068;2024-02-21T06:23:24;119.17;;;7.30;;
4274;SDS011;2151;50.988;11.068;2024-02-21T06:25:50;122.40;;;7.43;;
4274;SDS011;2151;50.988;11.068;2024-02-21T06:28:17;115.00;;;6.90;;
4274;SDS011;2151;50.988;11.068;2024-02-21T06:30:43;114.70;;;6.87;;
4274;SDS011;2151;50.988;11.068;2024-02-21T06:33:10;116.93;;;7.03;;
4274;SDS011;2151;50.988;11.068;2024-02-21T06:35:37;117.63;;;7.07;;
4274;SDS011;2151;50.988;11.068;2024-02-21T06:38:08;121.07;;;7.30;;
4274;SDS011;2151;50.988;11.068;2024-02-21T06:40:35;122.17;;;7.30;;
4274;SDS011;2151;50.988;11.068;2024-02-21T06:43:06;116.17;;;7.40;;
4274;SDS011;2151;50.988;11.068;2024-02-21T06:45:32;125.13;;;7.93;;
4274;SDS011;2151;50.988;11.068;2024-02-21T06:47:59;115.77;;;7.27;;
4274;SDS011;2151;50.988;11.068;2024-02-21T06:50:26;123.07;;;7.57;;
4274;SDS011;2151;50.988;11.068;2024-02-21T06:52:52;122.90;;;7.10;;
4274;SDS011;2151;50.988;11.068;2024-02-21T06:55:19;120.93;;;7.60;;
4274;SDS011;2151;50.988;11.068;2024-02-21T06:57:46;117.00;;;7.43;;
4274;SDS011;2151;50.988;11.068;2024-02-21T07:00:14;117.40;;;7.50;;
4274;SDS011;2151;50.988;11.068;2024-02-21T07:02:41;117.27;;;7.57;;
4274;SDS011;2151;50.988;11.068;2024-02-21T07:05:07;117.67;;;7.17;;
4274;SDS011;2151;50.988;11.068;2024-02-21T07:07:34;122.10;;;7.87;;
4274;SDS011;2151;50.988;11.068;2024-02-21T07:10:02;118.87;;;7.27;;
4274;SDS011;2151;50.988;11.068;2024-02-21T07:12:28;117.57;;;8.00;;
4274;SDS011;2151;50.988;11.068;2024-02-21T07:14:55;116.37;;;7.00;;
4274;SDS011;2151;50.988;11.068;2024-02-21T07:17:21;117.10;;;7.17;;
4274;SDS011;2151;50.988;11.068;2024-02-21T07:19:48;122.57;;;8.40;;
4274;SDS011;2151;50.988;11.068;2024-02-21T07:22:15;116.73;;;7.27;;
4274;SDS011;2151;50.988;11.068;2024-02-21T07:24:41;116.53;;;7.33;;
4274;SDS011;2151;50.988;11.068;2024-02-21T07:27:07;120.60;;;7.27;;
4274;SDS011;2151;50.988;11.068;2024-02-21T07:29:34;119.20;;;8.30;;
4274;SDS011;2151;50.988;11.068;2024-02-21T07:32:00;121.03;;;7.70;;
4274;SDS011;2151;50.988;11.068;2024-02-21T07:34:28;117.67;;;7.53;;
4274;SDS011;2151;50.988;11.068;2024-02-21T07:36:55;119.10;;;6.70;;
4274;SDS011;2151;50.988;11.068;2024-02-21T07:39:22;121.40;;;7.80;;
4274;SDS011;2151;50.988;11.068;2024-02-21T07:41:48;121.67;;;7.57;;
4274;SDS011;2151;50.988;11.068;2024-02-21T07:44:15;119.27;;;7.57;;
4274;SDS011;2151;50.988;11.068;2024-02-21T07:46:42;122.77;;;7.93;;
4274;SDS011;2151;50.988;11.068;2024-02-21T07:49:11;118.67;;;7.77;;
4274;SDS011;2151;50.988;11.068;2024-02-21T07:51:37;115.80;;;7.03;;
4274;SDS011;2151;50.988;11.068;2024-02-21T07:54:04;117.90;;;7.13;;
4274;SDS011;2151;50.988;11.068;2024-02-21T07:56:30;116.07;;;7.60;;
4274;SDS011;2151;50.988;11.068;2024-02-21T07:58:57;116.63;;;7.77;;
4274;SDS011;2151;50.988;11.068;2024-02-21T08:01:24;118.70;;;7.40;;
4274;SDS011;2151;50.988;11.068;2024-02-21T08:03:50;115.87;;;7.47;;
4274;SDS011;2151;50.988;11.068;2024-02-21T08:06:17;121.33;;;8.37;;
4274;SDS011;2151;50.988;11.068;2024-02-21T08:08:44;123.60;;;8.43;;
4274;SDS011;2151;50.988;11.068;2024-02-21T08:11:10;129.37;;;9.23;;
4274;SDS011;2151;50.988;11.068;2024-02-21T08:13:37;117.57;;;8.63;;
4274;SDS011;2151;50.988;11.068;2024-02-21T08:16:04;120.20;;;8.57;;
4274;SDS011;2151;50.988;11.068;2024-02-21T08:18:31;120.07;;;8.13;;
4274;SDS011;2151;50.988;11.068;2024-02-21T08:20:58;114.93;;;7.70;;
4274;SDS011;2151;50.988;11.068;2024-02-21T08:23:24;121.00;;;8.63;;
4274;SDS011;2151;50.988;11.068;2024-02-21T08:25:51;118.80;;;8.40;;
4274;SDS011;2151;50.988;11.068;2024-02-21T08:28:18;117.77;;;8.30;;
4274;SDS011;2151;50.988;11.068;2024-02-21T08:30:45;116.97;;;7.93;;
4274;SDS011;2151;50.988;11.068;2024-02-21T08:33:15;118.13;;;8.33;;
4274;SDS011;2151;50.988;11.068;2024-02-21T08:35:43;121.70;;;8.60;;
4274;SDS011;2151;50.988;11.068;2024-02-21T08:38:10;117.83;;;7.73;;
4274;SDS011;2151;50.988;11.068;2024-02-21T08:40:36;125.67;;;9.27;;
4274;SDS011;2151;50.988;11.068;2024-02-21T08:43:03;116.77;;;8.17;;
4274;SDS011;2151;50.988;11.068;2024-02-21T08:45:29;121.33;;;8.47;;
4274;SDS011;2151;50.988;11.068;2024-02-21T08:47:56;116.67;;;7.80;;
4274;SDS011;2151;50.988;11.068;2024-02-21T08:50:22;120.60;;;7.67;;
4274;SDS011;2151;50.988;11.068;2024-02-21T08:52:54;115.97;;;7.70;;
4274;SDS011;2151;50.988;11.068;2024-02-21T08:55:22;120.87;;;8.07;;
4274;SDS011;2151;50.988;11.068;2024-02-21T08:57:48;116.03;;;7.90;;
4274;SDS011;2151;50.988;11.068;2024-02-21T09:00:15;120.67;;;8.40;;
4274;SDS011;2151;50.988;11.068;2024-02-21T09:02:42;124.40;;;7.83;;
4274;SDS011;2151;50.988;11.068;2024-02-21T09:05:09;123.10;;;8.20;;
4274;SDS011;2151;50.988;11.068;2024-02-21T09:07:36;122.17;;;7.30;;
4274;SDS011;2151;50.988;11.068;2024-02-21T09:10:03;126.20;;;7.33;;
4274;SDS011;2151;50.988;11.068;2024-02-21T09:12:30;113.50;;;7.30;;
4274;SDS011;2151;50.988;11.068;2024-02-21T09:14:56;120.73;;;7.67;;
4274;SDS011;2151;50.988;11.068;2024-02-21T09:17:23;116.80;;;7.20;;
4274;SDS011;2151;50.988;11.068;2024-02-21T09:19:51;117.17;;;7.17;;
4274;SDS011;2151;50.988;11.068;2024-02-21T09:22:19;117.80;;;7.50;;
4274;SDS011;2151;50.988;11.068;2024-02-21T09:24:46;117.13;;;7.40;;
4274;SDS011;2151;50.988;11.068;2024-02-21T09:27:13;120.30;;;7.43;;
4274;SDS011;2151;50.988;11.068;2024-02-21T09:29:40;117.43;;;7.00;;
4274;SDS011;2151;50.988;11.068;2024-02-21T09:32:07;118.47;;;6.67;;
4274;SDS011;2151;50.988;11.068;2024-02-21T09:34:33;114.23;;;6.63;;
4274;SDS011;2151;50.988;11.068;2024-02-21T09:37:00;118.07;;;7.20;;
4274;SDS011;2151;50.988;11.068;2024-02-21T09:39:27;116.60;;;7.47;;
4274;SDS011;2151;50.988;11.068;2024-02-21T09:42:06;115.07;;;6.60;;
4274;SDS011;2151;50.988;11.068;2024-02-21T09:44:36;117.83;;;6.90;;
4274;SDS011;2151;50.988;11.068;2024-02-21T09:47:04;113.23;;;7.00;;
4274;SDS011;2151;50.988;11.068;2024-02-21T09:49:33;113.10;;;6.43;;
4274;SDS011;2151;50.988;11.068;2024-02-21T09:52:01;116.30;;;7.67;;
4274;SDS011;2151;50.988;11.068;2024-02-21T09:54:32;113.33;;;6.60;;
4274;SDS011;2151;50.988;11.068;2024-02-21T09:57:04;112.70;;;6.70;;
4274;SDS011;2151;50.988;11.068;2024-02-21T09:59:32;114.27;;;7.13;;
4274;SDS011;2151;50.988;11.068;2024-02-21T10:01:59;114.63;;;6.27;;
4274;SDS011;2151;50.988;11.068;2024-02-21T10:04:30;115.47;;;6.67;;
4274;SDS011;2151;50.988;11.068;2024-02-21T10:06:57;114.97;;;7.30;;
4274;SDS011;2151;50.988;11.068;2024-02-21T10:09:24;113.07;;;6.63;;
4274;SDS011;2151;50.988;11.068;2024-02-21T10:11:54;124.73;;;8.27;;
4274;SDS011;2151;50.988;11.068;2024-02-21T10:14:21;113.77;;;6.60;;
4274;SDS011;2151;50.988;11.068;2024-02-21T10:16:48;114.57;;;7.07;;
4274;SDS011;2151;50.988;11.068;2024-02-21T10:19:21;114.00;;;7.20;;
4274;SDS011;2151;50.988;11.068;2024-02-21T10:22:00;114.73;;;7.57;;
4274;SDS011;2151;50.988;11.068;2024-02-21T10:24:28;115.30;;;6.50;;
4274;SDS011;2151;50.988;11.068;2024-02-21T10:26:59;114.17;;;6.57;;
4274;SDS011;2151;50.988;11.068;2024-02-21T10:29:26;114.67;;;7.57;;
4274;SDS011;2151;50.988;11.068;2024-02-21T10:31:52;115.00;;;6.87;;
4274;SDS011;2151;50.988;11.068;2024-02-21T10:34:29;117.80;;;6.80;;
4274;SDS011;2151;50.988;11.068;2024-02-21T10:37:02;113.13;;;6.87;;
4274;SDS011;2151;50.988;11.068;2024-02-21T10:39:33;115.87;;;6.63;;
4274;SDS011;2151;50.988;11.068;2024-02-21T10:42:00;115.80;;;6.67;;
4274;SDS011;2151;50.988;11.068;2024-02-21T10:44:30;117.53;;;6.77;;
4274;SDS011;2151;50.988;11.068;2024-02-21T10:47:00;117.97;;;6.80;;
4274;SDS011;2151;50.988;11.068;2024-02-21T10:49:30;112.80;;;5.93;;
4274;SDS011;2151;50.988;11.068;2024-02-21T10:55:03;118.87;;;7.07;;
4274;SDS011;2151;50.988;11.068;2024-02-21T10:57:33;114.93;;;7.10;;
4274;SDS011;2151;50.988;11.068;2024-02-21T11:00:01;116.10;;;6.53;;
4274;SDS011;2151;50.988;11.068;2024-02-21T11:02:29;116.13;;;6.37;;
4274;SDS011;2151;50.988;11.068;2024-02-21T11:04:57;113.10;;;6.30;;
4274;SDS011;2151;50.988;11.068;2024-02-21T11:07:24;112.47;;;6.20;;
4274;SDS011;2151;50.988;11.068;2024-02-21T11:09:54;113.23;;;6.50;;
4274;SDS011;2151;50.988;11.068;2024-02-21T11:12:22;112.83;;;6.33;;
4274;SDS011;2151;50.988;11.068;2024-02-21T11:14:49;113.63;;;6.70;;
4274;SDS011;2151;50.988;11.068;2024-02-21T11:17:16;111.70;;;5.77;;
4274;SDS011;2151;50.988;11.068;2024-02-21T11:19:43;113.20;;;6.17;;
4274;SDS011;2151;50.988;11.068;2024-02-21T11:22:14;112.30;;;5.73;;
4274;SDS011;2151;50.988;11.068;2024-02-21T11:24:40;115.53;;;6.30;;
4274;SDS011;2151;50.988;11.068;2024-02-21T11:27:09;112.67;;;5.93;;
4274;SDS011;2151;50.988;11.068;2024-02-21T11:29:48;116.77;;;5.97;;
4274;SDS011;2151;50.988;11.068;2024-02-21T11:32:18;113.80;;;5.83;;
4274;SDS011;2151;50.988;11.068;2024-02-21T11:35:07;114.43;;;5.83;;
4274;SDS011;2151;50.988;11.068;2024-02-21T11:37:35;111.17;;;6.00;;
4274;SDS011;2151;50.988;11.068;2024-02-21T11:40:06;113.77;;;5.20;;
4274;SDS011;2151;50.988;11.068;2024-02-21T11:42:38;111.90;;;5.77;;
4274;SDS011;2151;50.988;11.068;2024-02-21T11:45:06;110.50;;;5.40;;
4274;SDS011;2151;50.988;11.068;2024-02-21T11:47:33;117.87;;;5.90;;
4274;SDS011;2151;50.988;11.068;2024-02-21T11:49:59;114.47;;;5.80;;
4274;SDS011;2151;50.988;11.068;2024-02-21T11:52:26;112.43;;;6.57;;
4274;SDS011;2151;50.988;11.068;2024-02-21T11:54:54;110.60;;;5.60;;
4274;SDS011;2151;50.988;11.068;2024-02-21T11:57:23;113.10;;;6.20;;
4274;SDS011;2151;50.988;11.068;2024-02-21T11:59:50;112.87;;;5.80;;
4274;SDS011;2151;50.988;11.068;2024-02-21T12:02:24;112.43;;;6.00;;
4274;SDS011;2151;50.988;11.068;2024-02-21T12:04:50;113.27;;;5.30;;
4274;SDS011;2151;50.988;11.068;2024-02-21T12:07:18;112.43;;;5.57;;
4274;SDS011;2151;50.988;11.068;2024-02-21T12:09:44;108.53;;;5.33;;
4274;SDS011;2151;50.988;11.068;2024-02-21T12:12:11;118.07;;;5.50;;
4274;SDS011;2151;50.988;11.068;2024-02-21T12:14:37;111.63;;;5.37;;
4274;SDS011;2151;50.988;11.068;2024-02-21T12:17:04;114.40;;;5.80;;
4274;SDS011;2151;50.988;11.068;2024-02-21T12:19:33;111.17;;;5.90;;
4274;SDS011;2151;50.988;11.068;2024-02-21T12:22:00;113.07;;;5.87;;
4274;SDS011;2151;50.988;11.068;2024-02-21T12:24:28;113.77;;;6.13;;
4274;SDS011;2151;50.988;11.068;2024-02-21T12:26:55;112.30;;;5.33;;
4274;SDS011;2151;50.988;11.068;2024-02-21T12:29:23;114.23;;;6.80;;
4274;SDS011;2151;50.988;11.068;2024-02-21T12:31:52;111.10;;;5.77;;
4274;SDS011;2151;50.988;11.068;2024-02-21T12:34:23;110.03;;;5.20;;
4274;SDS011;2151;50.988;11.068;2024-02-21T12:37:04;108.37;;;5.10;;
4274;SDS011;2151;50.988;11.068;2024-02-21T12:39:31;110.20;;;5.80;;
4274;SDS011;2151;50.988;11.068;2024-02-21T12:41:59;111.50;;;5.10;;
4274;SDS011;2151;50.988;11.068;2024-02-21T12:44:25;111.87;;;6.80;;
4274;SDS011;2151;50.988;11.068;2024-02-21T12:46:52;109.50;;;5.17;;
4274;SDS011;2151;50.988;11.068;2024-02-21T12:49:21;109.83;;;5.90;;
4274;SDS011;2151;50.988;11.068;2024-02-21T12:51:48;112.07;;;6.17;;
4274;SDS011;2151;50.988;11.068;2024-02-21T12:54:14;110.00;;;5.40;;
4274;SDS011;2151;50.988;11.068;2024-02-21T12:56:41;112.53;;;6.33;;
4274;SDS011;2151;50.988;11.068;2024-02-21T12:59:07;110.07;;;5.37;;
4274;SDS011;2151;50.988;11.068;2024-02-21T13:01:36;109.13;;;5.33;;
4274;SDS011;2151;50.988;11.068;2024-02-21T13:04:04;112.80;;;5.97;;
4274;SDS011;2151;50.988;11.068;2024-02-21T13:06:31;116.83;;;6.23;;
4274;SDS011;2151;50.988;11.068;2024-02-21T13:08:58;110.87;;;5.73;;
4274;SDS011;2151;50.988;11.068;2024-02-21T13:11:25;113.67;;;6.00;;
4274;SDS011;2151;50.988;11.068;2024-02-21T13:13:54;110.43;;;4.80;;
4274;SDS011;2151;50.988;11.068;2024-02-21T13:16:21;114.80;;;5.93;;
4274;SDS011;2151;50.988;11.068;2024-02-21T13:18:49;109.20;;;5.17;;
4274;SDS011;2151;50.988;11.068;2024-02-21T13:21:15;109.63;;;5.30;;
4274;SDS011;2151;50.988;11.068;2024-02-21T13:23:42;108.67;;;5.03;;
4274;SDS011;2151;50.988;11.068;2024-02-21T13:26:10;111.37;;;5.73;;
4274;SDS011;2151;50.988;11.068;2024-02-21T13:28:37;109.87;;;5.37;;
4274;SDS011;2151;50.988;11.068;2024-02-21T13:31:04;110.17;;;5.50;;
4274;SDS011;2151;50.988;11.068;2024-02-21T13:33:30;110.10;;;5.80;;
4274;SDS011;2151;50.988;11.068;2024-02-21T13:35:57;108.37;;;4.80;;
4274;SDS011;2151;50.988;11.068;2024-02-21T13:38:23;109.90;;;5.40;;
4274;SDS011;2151;50.988;11.068;2024-02-21T13:40:50;117.67;;;5.80;;
4274;SDS011;2151;50.988;11.068;2024-02-21T13:43:17;108.57;;;4.70;;
4274;SDS011;2151;50.988;11.068;2024-02-21T13:45:45;111.77;;;5.30;;
4274;SDS011;2151;50.988;11.068;2024-02-21T13:48:21;111.00;;;5.33;;
4274;SDS011;2151;50.988;11.068;2024-02-21T13:50:47;111.30;;;6.50;;
4274;SDS011;2151;50.988;11.068;2024-02-21T13:53:14;114.20;;;5.80;;
4274;SDS011;2151;50.988;11.068;2024-02-21T13:55:40;111.20;;;5.77;;
4274;SDS011;2151;50.988;11.068;2024-02-21T13:58:07;110.00;;;5.80;;
4274;SDS011;2151;50.988;11.068;2024-02-21T14:00:35;114.77;;;6.27;;
4274;SDS011;2151;50.988;11.068;2024-02-21T14:03:02;110.17;;;5.27;;
4274;SDS011;2151;50.988;11.068;2024-02-21T14:05:33;110.40;;;5.53;;
4274;SDS011;2151;50.988;11.068;2024-02-21T14:07:59;115.40;;;5.40;;
4274;SDS011;2151;50.988;11.068;2024-02-21T14:10:26;114.80;;;6.30;;
4274;SDS011;2151;50.988;11.068;2024-02-21T14:12:55;110.60;;;5.33;;
4274;SDS011;2151;50.988;11.068;2024-02-21T14:15:24;115.37;;;5.37;;
4274;SDS011;2151;50.988;11.068;2024-02-21T14:17:51;109.97;;;5.50;;
4274;SDS011;2151;50.988;11.068;2024-02-21T14:20:18;109.80;;;5.50;;
4274;SDS011;2151;50.988;11.068;2024-02-21T14:22:45;110.30;;;5.63;;
4274;SDS011;2151;50.988;11.068;2024-02-21T14:25:11;109.73;;;5.40;;
4274;SDS011;2151;50.988;11.068;2024-02-21T14:27:39;114.03;;;6.00;;
4274;SDS011;2151;50.988;11.068;2024-02-21T14:30:06;112.93;;;5.83;;
4274;SDS011;2151;50.988;11.068;2024-02-21T14:32:32;111.07;;;5.23;;
4274;SDS011;2151;50.988;11.068;2024-02-21T14:34:59;110.17;;;5.57;;
4274;SDS011;2151;50.988;11.068;2024-02-21T14:37:32;111.30;;;5.77;;
4274;SDS011;2151;50.988;11.068;2024-02-21T14:39:59;113.87;;;5.50;;